sensor_id;sensor_type;location;lat;lon;timestamp;pressure;altitude;pressure_sealevel;temperature;humidity
34586;BME280;20816;50.950;11.108;2023-06-26T00:01:02;98382.72;;;20.69;82.87
34586;BME280;20816;50.950;11.108;2023-06-26T00:03:29;98386.16;;;20.71;82.34
34586;BME280;20816;50.950;11.108;2023-06-26T00:05:55;98380.41;;;20.77;82.71
34586;BME280;20816;50.950;11.108;2023-06-26T00:08:28;98384.66;;;20.80;82.30
34586;BME280;20816;50.950;11.108;2023-06-26T00:10:54;98382.84;;;20.80;82.28
34586;BME280;20816;50.950;11.108;2023-06-26T00:13:22;98382.53;;;20.85;82.70
34586;BME280;20816;50.950;11.108;2023-06-26T00:15:50;98379.44;;;20.78;82.71
34586;BME280;20816;50.950;11.108;2023-06-26T00:18:17;98383.06;;;20.77;82.85
34586;BME280;20816;50.950;11.108;2023-06-26T00:20:43;98377.28;;;20.70;82.97
34586;BME280;20816;50.950;11.108;2023-06-26T00:23:12;98379.22;;;20.81;82.82
34586;BME280;20816;50.950;11.108;2023-06-26T00:25:39;98376.00;;;20.76;83.12
34586;BME280;20816;50.950;11.108;2023-06-26T00:28:06;98376.94;;;20.75;83.35
34586;BME280;20816;50.950;11.108;2023-06-26T00:30:33;98371.88;;;20.58;84.12
34586;BME280;20816;50.950;11.108;2023-06-26T00:32:59;98369.06;;;20.47;84.89
34586;BME280;20816;50.950;11.108;2023-06-26T00:35:26;98376.69;;;20.38;85.59
34586;BME280;20816;50.950;11.108;2023-06-26T00:37:52;98376.22;;;20.32;85.91
34586;BME280;20816;50.950;11.108;2023-06-26T00:40:19;98370.81;;;20.19;86.26
34586;BME280;20816;50.950;11.108;2023-06-26T00:42:45;98363.31;;;20.11;86.99
34586;BME280;20816;50.950;11.108;2023-06-26T00:45:12;98367.25;;;20.06;87.11
34586;BME280;20816;50.950;11.108;2023-06-26T00:47:39;98374.50;;;20.04;87.53
34586;BME280;20816;50.950;11.108;2023-06-26T00:50:07;98379.09;;;19.87;87.94
34586;BME280;20816;50.950;11.108;2023-06-26T00:52:34;98374.50;;;19.90;87.71
34586;BME280;20816;50.950;11.108;2023-06-26T00:55:01;98374.13;;;19.96;87.01
34586;BME280;20816;50.950;11.108;2023-06-26T00:57:28;98372.59;;;19.92;87.55
34586;BME280;20816;50.950;11.108;2023-06-26T00:59:54;98369.56;;;19.83;88.74
34586;BME280;20816;50.950;11.108;2023-06-26T01:02:21;98360.97;;;19.78;88.48
34586;BME280;20816;50.950;11.108;2023-06-26T01:04:52;98359.66;;;19.71;89.17
34586;BME280;20816;50.950;11.108;2023-06-26T01:07:20;98351.09;;;19.66;90.15
34586;BME280;20816;50.950;11.108;2023-06-26T01:09:48;98347.19;;;19.57;90.11
34586;BME280;20816;50.950;11.108;2023-06-26T01:12:15;98352.00;;;19.51;90.86
34586;BME280;20816;50.950;11.108;2023-06-26T01:14:41;98346.88;;;19.48;90.89
34586;BME280;20816;50.950;11.108;2023-06-26T01:17:09;98351.16;;;19.50;91.28
34586;BME280;20816;50.950;11.108;2023-06-26T01:19:42;98352.00;;;19.51;90.99
34586;BME280;20816;50.950;11.108;2023-06-26T01:22:19;98341.94;;;19.56;90.11
34586;BME280;20816;50.950;11.108;2023-06-26T01:25:15;98339.75;;;19.63;90.23
34586;BME280;20816;50.950;11.108;2023-06-26T01:27:47;98337.28;;;19.74;89.09
34586;BME280;20816;50.950;11.108;2023-06-26T01:30:15;98330.13;;;19.88;88.01
34586;BME280;20816;50.950;11.108;2023-06-26T01:32:43;98335.66;;;19.71;89.07
34586;BME280;20816;50.950;11.108;2023-06-26T01:35:11;98331.84;;;19.61;90.28
34586;BME280;20816;50.950;11.108;2023-06-26T01:37:38;98337.38;;;19.58;90.13
34586;BME280;20816;50.950;11.108;2023-06-26T01:40:05;98335.53;;;19.44;90.88
34586;BME280;20816;50.950;11.108;2023-06-26T01:42:33;98335.44;;;19.31;92.32
34586;BME280;20816;50.950;11.108;2023-06-26T01:45:24;98340.47;;;19.22;92.78
34586;BME280;20816;50.950;11.108;2023-06-26T01:47:54;98325.53;;;19.19;92.52
34586;BME280;20816;50.950;11.108;2023-06-26T01:50:26;98319.53;;;19.16;92.87
34586;BME280;20816;50.950;11.108;2023-06-26T01:53:16;98323.25;;;19.27;91.58
34586;BME280;20816;50.950;11.108;2023-06-26T01:55:51;98320.00;;;19.37;91.37
34586;BME280;20816;50.950;11.108;2023-06-26T01:58:22;98316.78;;;19.46;90.12
34586;BME280;20816;50.950;11.108;2023-06-26T02:00:50;98314.47;;;19.54;89.87
34586;BME280;20816;50.950;11.108;2023-06-26T02:03:17;98321.19;;;19.61;89.58
34586;BME280;20816;50.950;11.108;2023-06-26T02:05:44;98323.09;;;19.59;89.77
34586;BME280;20816;50.950;11.108;2023-06-26T02:08:13;98318.81;;;19.56;89.63
34586;BME280;20816;50.950;11.108;2023-06-26T02:10:40;98323.25;;;19.56;89.46
34586;BME280;20816;50.950;11.108;2023-06-26T02:13:07;98323.63;;;19.50;89.89
34586;BME280;20816;50.950;11.108;2023-06-26T02:15:34;98311.81;;;19.54;89.50
34586;BME280;20816;50.950;11.108;2023-06-26T02:18:00;98319.81;;;19.54;89.54
34586;BME280;20816;50.950;11.108;2023-06-26T02:20:27;98317.56;;;19.62;89.37
34586;BME280;20816;50.950;11.108;2023-06-26T02:22:53;98313.28;;;19.59;88.49
34586;BME280;20816;50.950;11.108;2023-06-26T02:25:20;98318.34;;;19.64;88.13
34586;BME280;20816;50.950;11.108;2023-06-26T02:27:46;98313.56;;;19.69;87.72
34586;BME280;20816;50.950;11.108;2023-06-26T02:30:13;98328.06;;;19.65;87.85
34586;BME280;20816;50.950;11.108;2023-06-26T02:32:40;98330.34;;;19.57;88.52
34586;BME280;20816;50.950;11.108;2023-06-26T02:35:07;98323.44;;;19.53;88.30
34586;BME280;20816;50.950;11.108;2023-06-26T02:37:34;98319.38;;;19.47;88.82
34586;BME280;20816;50.950;11.108;2023-06-26T02:40:00;98314.31;;;19.43;88.76
34586;BME280;20816;50.950;11.108;2023-06-26T02:42:27;98316.31;;;19.39;89.56
34586;BME280;20816;50.950;11.108;2023-06-26T02:44:54;98319.25;;;19.35;89.75
34586;BME280;20816;50.950;11.108;2023-06-26T02:47:20;98320.59;;;19.27;90.27
34586;BME280;20816;50.950;11.108;2023-06-26T02:49:47;98326.38;;;19.20;90.88
34586;BME280;20816;50.950;11.108;2023-06-26T02:52:14;98322.47;;;19.11;91.59
34586;BME280;20816;50.950;11.108;2023-06-26T02:54:40;98318.84;;;19.12;91.22
34586;BME280;20816;50.950;11.108;2023-06-26T02:57:07;98308.19;;;19.12;90.99
34586;BME280;20816;50.950;11.108;2023-06-26T02:59:34;98319.53;;;19.16;90.80
34586;BME280;20816;50.950;11.108;2023-06-26T03:02:00;98308.59;;;19.06;90.73
34586;BME280;20816;50.950;11.108;2023-06-26T03:04:27;98313.53;;;19.12;90.39
34586;BME280;20816;50.950;11.108;2023-06-26T03:06:54;98306.13;;;19.17;89.73
34586;BME280;20816;50.950;11.108;2023-06-26T03:09:21;98304.31;;;19.18;89.74
34586;BME280;20816;50.950;11.108;2023-06-26T03:11:48;98305.91;;;19.20;89.62
34586;BME280;20816;50.950;11.108;2023-06-26T03:14:15;98299.25;;;19.13;89.81
34586;BME280;20816;50.950;11.108;2023-06-26T03:16:41;98303.84;;;19.25;88.35
34586;BME280;20816;50.950;11.108;2023-06-26T03:19:08;98292.97;;;19.28;88.76
34586;BME280;20816;50.950;11.108;2023-06-26T03:21:35;98292.03;;;19.29;88.37
34586;BME280;20816;50.950;11.108;2023-06-26T03:24:02;98292.81;;;19.31;88.53
34586;BME280;20816;50.950;11.108;2023-06-26T03:26:28;98304.97;;;19.36;87.50
34586;BME280;20816;50.950;11.108;2023-06-26T03:28:55;98297.66;;;19.39;87.46
34586;BME280;20816;50.950;11.108;2023-06-26T03:31:22;98301.19;;;19.40;87.37
34586;BME280;20816;50.950;11.108;2023-06-26T03:33:48;98298.31;;;19.43;87.35
34586;BME280;20816;50.950;11.108;2023-06-26T03:36:15;98303.38;;;19.47;86.95
34586;BME280;20816;50.950;11.108;2023-06-26T03:38:42;98300.22;;;19.41;87.73
34586;BME280;20816;50.950;11.108;2023-06-26T03:41:08;98292.03;;;19.44;88.16
34586;BME280;20816;50.950;11.108;2023-06-26T03:43:35;98302.69;;;19.44;88.33
34586;BME280;20816;50.950;11.108;2023-06-26T03:46:02;98293.09;;;19.41;88.11
34586;BME280;20816;50.950;11.108;2023-06-26T03:48:29;98291.09;;;19.30;90.71
34586;BME280;20816;50.950;11.108;2023-06-26T03:50:56;98291.94;;;19.17;92.33
34586;BME280;20816;50.950;11.108;2023-06-26T03:53:22;98291.66;;;19.07;93.32
34586;BME280;20816;50.950;11.108;2023-06-26T03:55:50;98300.03;;;19.01;94.30
34586;BME280;20816;50.950;11.108;2023-06-26T03:58:16;98290.22;;;19.01;94.31
34586;BME280;20816;50.950;11.108;2023-06-26T04:00:43;98285.53;;;19.05;94.33
34586;BME280;20816;50.950;11.108;2023-06-26T04:03:10;98288.59;;;19.13;93.34
34586;BME280;20816;50.950;11.108;2023-06-26T04:05:37;98285.94;;;19.13;95.05
34586;BME280;20816;50.950;11.108;2023-06-26T04:08:04;98283.09;;;19.16;95.01
34586;BME280;20816;50.950;11.108;2023-06-26T04:10:31;98275.97;;;19.31;92.30
34586;BME280;20816;50.950;11.108;2023-06-26T04:12:58;98276.88;;;19.44;91.15
34586;BME280;20816;50.950;11.108;2023-06-26T04:15:24;98284.91;;;19.58;91.22
34586;BME280;20816;50.950;11.108;2023-06-26T04:17:51;98284.13;;;19.71;90.43
34586;BME280;20816;50.950;11.108;2023-06-26T04:20:18;98277.53;;;19.91;88.50
34586;BME280;20816;50.950;11.108;2023-06-26T04:22:44;98277.06;;;20.11;86.96
34586;BME280;20816;50.950;11.108;2023-06-26T04:25:11;98282.91;;;20.30;85.84
34586;BME280;20816;50.950;11.108;2023-06-26T04:27:38;98283.38;;;20.37;85.38
34586;BME280;20816;50.950;11.108;2023-06-26T04:30:07;98286.19;;;20.48;85.58
34586;BME280;20816;50.950;11.108;2023-06-26T04:32:34;98283.88;;;20.56;85.38
34586;BME280;20816;50.950;11.108;2023-06-26T04:35:01;98282.16;;;20.68;84.61
34586;BME280;20816;50.950;11.108;2023-06-26T04:37:29;98284.75;;;20.82;85.23
34586;BME280;20816;50.950;11.108;2023-06-26T04:39:56;98276.09;;;20.91;85.11
34586;BME280;20816;50.950;11.108;2023-06-26T04:42:23;98279.09;;;20.99;86.33
34586;BME280;20816;50.950;11.108;2023-06-26T04:44:49;98266.41;;;21.03;85.87
34586;BME280;20816;50.950;11.108;2023-06-26T04:47:16;98271.22;;;21.11;86.44
34586;BME280;20816;50.950;11.108;2023-06-26T04:49:43;98268.97;;;21.30;87.11
34586;BME280;20816;50.950;11.108;2023-06-26T04:52:13;98257.44;;;21.42;88.30
34586;BME280;20816;50.950;11.108;2023-06-26T04:54:40;98255.25;;;21.47;88.91
34586;BME280;20816;50.950;11.108;2023-06-26T04:57:06;98259.75;;;21.60;89.29
34586;BME280;20816;50.950;11.108;2023-06-26T04:59:35;98267.81;;;21.71;89.30
34586;BME280;20816;50.950;11.108;2023-06-26T05:02:01;98266.47;;;21.89;89.32
34586;BME280;20816;50.950;11.108;2023-06-26T05:04:28;98272.41;;;22.05;88.84
34586;BME280;20816;50.950;11.108;2023-06-26T05:06:55;98265.75;;;22.24;87.02
34586;BME280;20816;50.950;11.108;2023-06-26T05:09:22;98267.03;;;22.42;86.55
34586;BME280;20816;50.950;11.108;2023-06-26T05:11:48;98263.94;;;22.59;85.86
34586;BME280;20816;50.950;11.108;2023-06-26T05:14:15;98255.22;;;22.80;87.33
34586;BME280;20816;50.950;11.108;2023-06-26T05:16:41;98266.53;;;23.07;86.53
34586;BME280;20816;50.950;11.108;2023-06-26T05:19:08;98264.22;;;23.25;85.90
34586;BME280;20816;50.950;11.108;2023-06-26T05:21:35;98249.22;;;23.56;84.81
34586;BME280;20816;50.950;11.108;2023-06-26T05:24:02;98261.66;;;23.68;84.45
34586;BME280;20816;50.950;11.108;2023-06-26T05:26:30;98262.13;;;23.96;84.24
34586;BME280;20816;50.950;11.108;2023-06-26T05:28:56;98253.75;;;24.21;81.92
34586;BME280;20816;50.950;11.108;2023-06-26T05:31:23;98245.44;;;24.36;79.41
34586;BME280;20816;50.950;11.108;2023-06-26T05:33:51;98245.84;;;24.52;79.72
34586;BME280;20816;50.950;11.108;2023-06-26T05:36:20;98248.34;;;24.85;77.34
34586;BME280;20816;50.950;11.108;2023-06-26T05:38:48;98244.56;;;25.09;77.24
34586;BME280;20816;50.950;11.108;2023-06-26T05:41:17;98244.78;;;25.67;75.59
34586;BME280;20816;50.950;11.108;2023-06-26T05:43:43;98246.88;;;26.04;73.99
34586;BME280;20816;50.950;11.108;2023-06-26T05:46:10;98244.41;;;26.41;73.15
34586;BME280;20816;50.950;11.108;2023-06-26T05:48:37;98243.69;;;26.58;72.88
34586;BME280;20816;50.950;11.108;2023-06-26T05:51:04;98243.50;;;26.79;71.94
34586;BME280;20816;50.950;11.108;2023-06-26T05:53:31;98237.78;;;27.21;71.51
34586;BME280;20816;50.950;11.108;2023-06-26T05:55:58;98240.78;;;27.08;71.55
34586;BME280;20816;50.950;11.108;2023-06-26T05:58:26;98231.09;;;27.52;71.62
34586;BME280;20816;50.950;11.108;2023-06-26T06:00:56;98240.63;;;27.56;69.52
34586;BME280;20816;50.950;11.108;2023-06-26T06:03:22;98243.06;;;27.87;68.18
34586;BME280;20816;50.950;11.108;2023-06-26T06:05:49;98239.34;;;27.88;67.91
34586;BME280;20816;50.950;11.108;2023-06-26T06:08:16;98237.34;;;28.35;67.74
34586;BME280;20816;50.950;11.108;2023-06-26T06:10:43;98237.34;;;28.53;66.65
34586;BME280;20816;50.950;11.108;2023-06-26T06:13:10;98244.53;;;29.06;66.11
34586;BME280;20816;50.950;11.108;2023-06-26T06:15:36;98232.34;;;29.02;64.55
34586;BME280;20816;50.950;11.108;2023-06-26T06:18:03;98231.94;;;29.49;63.01
34586;BME280;20816;50.950;11.108;2023-06-26T06:20:30;98238.47;;;29.38;62.57
34586;BME280;20816;50.950;11.108;2023-06-26T06:22:56;98242.25;;;29.79;60.85
34586;BME280;20816;50.950;11.108;2023-06-26T06:25:23;98232.59;;;29.77;61.26
34586;BME280;20816;50.950;11.108;2023-06-26T06:27:50;98233.50;;;30.02;61.16
34586;BME280;20816;50.950;11.108;2023-06-26T06:30:16;98235.28;;;30.27;61.28
34586;BME280;20816;50.950;11.108;2023-06-26T06:32:54;98237.31;;;30.17;60.13
34586;BME280;20816;50.950;11.108;2023-06-26T06:35:21;98239.38;;;30.23;61.88
34586;BME280;20816;50.950;11.108;2023-06-26T06:37:52;98236.00;;;29.87;60.96
34586;BME280;20816;50.950;11.108;2023-06-26T06:40:18;98237.69;;;30.30;60.47
34586;BME280;20816;50.950;11.108;2023-06-26T06:42:45;98238.59;;;30.05;60.19
34586;BME280;20816;50.950;11.108;2023-06-26T06:45:11;98233.00;;;30.73;59.79
34586;BME280;20816;50.950;11.108;2023-06-26T06:47:38;98227.50;;;31.14;58.83
34586;BME280;20816;50.950;11.108;2023-06-26T06:50:05;98231.25;;;31.13;57.90
34586;BME280;20816;50.950;11.108;2023-06-26T06:52:36;98229.53;;;31.36;56.87
34586;BME280;20816;50.950;11.108;2023-06-26T06:55:04;98219.91;;;31.65;56.30
34586;BME280;20816;50.950;11.108;2023-06-26T06:57:32;98229.19;;;31.31;56.92
34586;BME280;20816;50.950;11.108;2023-06-26T07:00:09;98226.81;;;31.75;56.27
34586;BME280;20816;50.950;11.108;2023-06-26T07:02:38;98222.81;;;32.02;55.73
34586;BME280;20816;50.950;11.108;2023-06-26T07:05:06;98216.44;;;32.18;55.24
34586;BME280;20816;50.950;11.108;2023-06-26T07:07:34;98209.72;;;32.29;54.71
34586;BME280;20816;50.950;11.108;2023-06-26T07:10:06;98215.34;;;32.73;55.08
34586;BME280;20816;50.950;11.108;2023-06-26T07:12:33;98201.34;;;32.61;54.35
34586;BME280;20816;50.950;11.108;2023-06-26T07:15:04;98203.16;;;33.22;53.16
34586;BME280;20816;50.950;11.108;2023-06-26T07:17:34;98199.19;;;32.72;49.51
34586;BME280;20816;50.950;11.108;2023-06-26T07:20:02;98201.59;;;32.52;51.04
34586;BME280;20816;50.950;11.108;2023-06-26T07:22:33;98197.06;;;32.82;49.94
34586;BME280;20816;50.950;11.108;2023-06-26T07:24:59;98203.50;;;32.66;50.07
34586;BME280;20816;50.950;11.108;2023-06-26T07:27:26;98202.50;;;32.82;49.17
34586;BME280;20816;50.950;11.108;2023-06-26T07:29:53;98205.75;;;32.85;49.81
34586;BME280;20816;50.950;11.108;2023-06-26T07:32:19;98205.53;;;33.39;49.91
34586;BME280;20816;50.950;11.108;2023-06-26T07:34:46;98197.97;;;32.97;49.05
34586;BME280;20816;50.950;11.108;2023-06-26T07:37:13;98199.22;;;33.09;49.22
34586;BME280;20816;50.950;11.108;2023-06-26T07:39:40;98197.25;;;33.47;50.36
34586;BME280;20816;50.950;11.108;2023-06-26T07:42:06;98190.97;;;33.47;49.57
34586;BME280;20816;50.950;11.108;2023-06-26T07:44:34;98192.28;;;33.51;49.07
34586;BME280;20816;50.950;11.108;2023-06-26T07:47:01;98190.59;;;33.50;48.42
34586;BME280;20816;50.950;11.108;2023-06-26T07:49:28;98200.06;;;33.69;49.24
34586;BME280;20816;50.950;11.108;2023-06-26T07:51:55;98199.03;;;33.26;48.86
34586;BME280;20816;50.950;11.108;2023-06-26T07:54:21;98198.84;;;33.71;49.03
34586;BME280;20816;50.950;11.108;2023-06-26T07:56:59;98196.41;;;33.77;47.89
34586;BME280;20816;50.950;11.108;2023-06-26T07:59:28;98201.75;;;33.70;46.68
34586;BME280;20816;50.950;11.108;2023-06-26T08:01:56;98194.28;;;34.08;46.57
34586;BME280;20816;50.950;11.108;2023-06-26T08:04:27;98190.88;;;33.26;47.84
34586;BME280;20816;50.950;11.108;2023-06-26T08:06:59;98191.91;;;33.54;47.63
34586;BME280;20816;50.950;11.108;2023-06-26T08:09:28;98196.91;;;33.65;47.44
34586;BME280;20816;50.950;11.108;2023-06-26T08:11:55;98185.56;;;34.19;47.09
34586;BME280;20816;50.950;11.108;2023-06-26T08:14:23;98180.00;;;34.06;46.81
34586;BME280;20816;50.950;11.108;2023-06-26T08:16:50;98190.13;;;34.76;46.66
34586;BME280;20816;50.950;11.108;2023-06-26T08:19:18;98186.63;;;34.61;45.95
34586;BME280;20816;50.950;11.108;2023-06-26T08:21:46;98180.00;;;34.92;45.50
34586;BME280;20816;50.950;11.108;2023-06-26T08:24:13;98183.03;;;34.82;45.66
34586;BME280;20816;50.950;11.108;2023-06-26T08:26:42;98177.72;;;35.30;45.07
34586;BME280;20816;50.950;11.108;2023-06-26T08:29:09;98185.66;;;34.69;46.06
34586;BME280;20816;50.950;11.108;2023-06-26T08:31:39;98188.34;;;34.62;44.90
34586;BME280;20816;50.950;11.108;2023-06-26T08:34:07;98178.56;;;34.74;45.37
34586;BME280;20816;50.950;11.108;2023-06-26T08:36:34;98184.78;;;35.11;46.01
34586;BME280;20816;50.950;11.108;2023-06-26T08:39:02;98183.94;;;35.17;44.03
34586;BME280;20816;50.950;11.108;2023-06-26T08:41:29;98173.47;;;35.55;44.03
34586;BME280;20816;50.950;11.108;2023-06-26T08:43:56;98169.66;;;35.50;44.31
34586;BME280;20816;50.950;11.108;2023-06-26T08:46:22;98173.56;;;35.75;43.35
34586;BME280;20816;50.950;11.108;2023-06-26T08:48:55;98170.28;;;35.45;42.92
34586;BME280;20816;50.950;11.108;2023-06-26T08:51:25;98177.84;;;35.50;42.79
34586;BME280;20816;50.950;11.108;2023-06-26T08:53:59;98169.56;;;35.71;42.58
34586;BME280;20816;50.950;11.108;2023-06-26T08:56:40;98168.47;;;36.20;41.81
34586;BME280;20816;50.950;11.108;2023-06-26T08:59:08;98171.00;;;35.32;42.33
34586;BME280;20816;50.950;11.108;2023-06-26T09:01:37;98169.22;;;35.46;42.31
34586;BME280;20816;50.950;11.108;2023-06-26T09:04:05;98170.56;;;35.63;42.04
34586;BME280;20816;50.950;11.108;2023-06-26T09:06:33;98163.97;;;35.92;40.99
34586;BME280;20816;50.950;11.108;2023-06-26T09:08:59;98170.69;;;36.91;40.95
34586;BME280;20816;50.950;11.108;2023-06-26T09:11:26;98166.00;;;36.71;40.76
34586;BME280;20816;50.950;11.108;2023-06-26T09:13:53;98163.47;;;36.57;40.85
34586;BME280;20816;50.950;11.108;2023-06-26T09:16:25;98170.19;;;37.27;40.30
34586;BME280;20816;50.950;11.108;2023-06-26T09:18:56;98166.00;;;36.65;40.79
34586;BME280;20816;50.950;11.108;2023-06-26T09:21:22;98165.38;;;37.02;41.42
34586;BME280;20816;50.950;11.108;2023-06-26T09:23:52;98164.78;;;35.86;40.98
34586;BME280;20816;50.950;11.108;2023-06-26T09:26:21;98161.75;;;36.29;42.49
34586;BME280;20816;50.950;11.108;2023-06-26T09:28:48;98163.78;;;36.07;41.78
34586;BME280;20816;50.950;11.108;2023-06-26T09:31:16;98169.72;;;36.17;40.63
34586;BME280;20816;50.950;11.108;2023-06-26T09:34:03;98177.09;;;35.00;41.88
34586;BME280;20816;50.950;11.108;2023-06-26T09:36:31;98166.53;;;35.53;42.92
34586;BME280;20816;50.950;11.108;2023-06-26T09:39:07;98162.38;;;36.31;42.36
34586;BME280;20816;50.950;11.108;2023-06-26T09:41:40;98165.09;;;36.25;41.29
34586;BME280;20816;50.950;11.108;2023-06-26T09:44:11;98155.00;;;35.64;42.15
34586;BME280;20816;50.950;11.108;2023-06-26T09:46:38;98157.50;;;35.59;42.20
34586;BME280;20816;50.950;11.108;2023-06-26T09:49:09;98147.75;;;35.91;41.61
34586;BME280;20816;50.950;11.108;2023-06-26T09:51:40;98164.00;;;34.67;41.74
34586;BME280;20816;50.950;11.108;2023-06-26T09:54:09;98150.09;;;35.11;42.24
34586;BME280;20816;50.950;11.108;2023-06-26T09:56:38;98152.47;;;35.21;42.07
34586;BME280;20816;50.950;11.108;2023-06-26T09:59:06;98157.69;;;35.57;42.50
34586;BME280;20816;50.950;11.108;2023-06-26T10:01:33;98155.00;;;36.18;41.41
34586;BME280;20816;50.950;11.108;2023-06-26T10:04:00;98143.00;;;35.65;42.35
34586;BME280;20816;50.950;11.108;2023-06-26T10:06:35;98147.88;;;35.28;42.38
34586;BME280;20816;50.950;11.108;2023-06-26T10:09:03;98139.00;;;35.20;42.24
34586;BME280;20816;50.950;11.108;2023-06-26T10:11:41;98144.94;;;36.59;41.46
34586;BME280;20816;50.950;11.108;2023-06-26T10:14:09;98139.84;;;35.20;42.32
34586;BME280;20816;50.950;11.108;2023-06-26T10:16:44;98146.75;;;34.39;43.41
34586;BME280;20816;50.950;11.108;2023-06-26T10:19:13;98143.03;;;34.25;43.46
34586;BME280;20816;50.950;11.108;2023-06-26T10:21:41;98144.31;;;33.71;44.06
34586;BME280;20816;50.950;11.108;2023-06-26T10:24:09;98141.72;;;33.04;44.30
34586;BME280;20816;50.950;11.108;2023-06-26T10:26:41;98131.16;;;33.90;43.30
34586;BME280;20816;50.950;11.108;2023-06-26T10:29:10;98122.09;;;35.03;42.14
34586;BME280;20816;50.950;11.108;2023-06-26T10:31:37;98115.94;;;35.35;42.54
34586;BME280;20816;50.950;11.108;2023-06-26T10:34:05;98121.81;;;35.32;41.32
34586;BME280;20816;50.950;11.108;2023-06-26T10:36:35;98117.09;;;35.13;41.93
34586;BME280;20816;50.950;11.108;2023-06-26T10:39:05;98111.97;;;34.97;41.92
34586;BME280;20816;50.950;11.108;2023-06-26T10:41:40;98113.72;;;35.11;42.34
34586;BME280;20816;50.950;11.108;2023-06-26T10:44:40;98111.00;;;35.59;41.78
34586;BME280;20816;50.950;11.108;2023-06-26T10:47:07;98111.66;;;36.62;41.03
34586;BME280;20816;50.950;11.108;2023-06-26T10:49:36;98096.41;;;37.19;40.16
34586;BME280;20816;50.950;11.108;2023-06-26T10:52:03;98101.06;;;37.12;40.30
34586;BME280;20816;50.950;11.108;2023-06-26T10:54:31;98099.84;;;36.55;40.77
34586;BME280;20816;50.950;11.108;2023-06-26T10:56:59;98091.03;;;36.66;39.62
34586;BME280;20816;50.950;11.108;2023-06-26T10:59:29;98099.22;;;36.53;40.92
34586;BME280;20816;50.950;11.108;2023-06-26T11:01:57;98102.75;;;36.13;40.78
34586;BME280;20816;50.950;11.108;2023-06-26T11:07:26;98088.06;;;36.34;41.25
34586;BME280;20816;50.950;11.108;2023-06-26T11:10:17;98080.63;;;37.08;40.12
34586;BME280;20816;50.950;11.108;2023-06-26T11:12:44;98073.75;;;37.43;39.37
34586;BME280;20816;50.950;11.108;2023-06-26T11:15:16;98076.69;;;36.90;39.97
34586;BME280;20816;50.950;11.108;2023-06-26T11:17:43;98069.50;;;36.76;40.12
34586;BME280;20816;50.950;11.108;2023-06-26T11:20:12;98075.41;;;36.33;40.99
34586;BME280;20816;50.950;11.108;2023-06-26T11:22:41;98071.22;;;36.44;41.25
34586;BME280;20816;50.950;11.108;2023-06-26T11:25:09;98080.03;;;36.92;40.02
34586;BME280;20816;50.950;11.108;2023-06-26T11:30:06;98079.09;;;37.25;38.98
34586;BME280;20816;50.950;11.108;2023-06-26T11:32:34;98069.81;;;37.26;38.42
34586;BME280;20816;50.950;11.108;2023-06-26T11:35:00;98075.56;;;37.04;39.77
34586;BME280;20816;50.950;11.108;2023-06-26T11:37:27;98080.25;;;36.71;40.64
34586;BME280;20816;50.950;11.108;2023-06-26T11:39:54;98077.28;;;35.38;41.25
34586;BME280;20816;50.950;11.108;2023-06-26T11:42:21;98075.84;;;35.08;42.66
34586;BME280;20816;50.950;11.108;2023-06-26T11:44:48;98084.75;;;34.33;42.13
34586;BME280;20816;50.950;11.108;2023-06-26T11:47:18;98072.34;;;35.62;41.99
34586;BME280;20816;50.950;11.108;2023-06-26T11:49:46;98078.38;;;36.58;41.36
34586;BME280;20816;50.950;11.108;2023-06-26T11:52:14;98070.75;;;36.73;39.72
34586;BME280;20816;50.950;11.108;2023-06-26T11:54:42;98068.66;;;36.69;40.46
34586;BME280;20816;50.950;11.108;2023-06-26T11:57:14;98061.56;;;36.41;41.34
34586;BME280;20816;50.950;11.108;2023-06-26T11:59:41;98059.41;;;36.04;41.12
34586;BME280;20816;50.950;11.108;2023-06-26T12:02:09;98066.34;;;34.69;41.69
34586;BME280;20816;50.950;11.108;2023-06-26T12:04:38;98071.50;;;34.29;43.07
34586;BME280;20816;50.950;11.108;2023-06-26T12:07:08;98076.06;;;34.22;43.23
34586;BME280;20816;50.950;11.108;2023-06-26T12:09:41;98067.97;;;34.57;43.25
34586;BME280;20816;50.950;11.108;2023-06-26T12:12:11;98061.31;;;35.01;43.45
34586;BME280;20816;50.950;11.108;2023-06-26T12:14:39;98056.78;;;35.82;41.98
34586;BME280;20816;50.950;11.108;2023-06-26T12:17:11;98066.00;;;35.55;41.96
34586;BME280;20816;50.950;11.108;2023-06-26T12:19:42;98047.63;;;35.35;41.71
34586;BME280;20816;50.950;11.108;2023-06-26T12:22:09;98059.72;;;35.61;41.32
34586;BME280;20816;50.950;11.108;2023-06-26T12:24:38;98059.34;;;35.77;41.68
34586;BME280;20816;50.950;11.108;2023-06-26T12:27:10;98062.28;;;34.87;41.79
34586;BME280;20816;50.950;11.108;2023-06-26T12:29:39;98060.41;;;34.10;41.89
34586;BME280;20816;50.950;11.108;2023-06-26T12:32:10;98065.28;;;33.93;43.15
34586;BME280;20816;50.950;11.108;2023-06-26T12:34:38;98055.59;;;33.18;43.32
34586;BME280;20816;50.950;11.108;2023-06-26T12:37:09;98058.56;;;33.23;44.04
34586;BME280;20816;50.950;11.108;2023-06-26T12:42:18;98060.19;;;34.33;43.08
34586;BME280;20816;50.950;11.108;2023-06-26T12:44:45;98052.00;;;34.61;43.52
34586;BME280;20816;50.950;11.108;2023-06-26T12:47:14;98064.84;;;33.53;43.19
34586;BME280;20816;50.950;11.108;2023-06-26T12:49:42;98061.09;;;32.66;44.63
34586;BME280;20816;50.950;11.108;2023-06-26T12:52:11;98054.91;;;32.42;45.28
34586;BME280;20816;50.950;11.108;2023-06-26T12:54:39;98069.88;;;31.77;46.85
34586;BME280;20816;50.950;11.108;2023-06-26T12:57:07;98087.69;;;31.02;50.75
34586;BME280;20816;50.950;11.108;2023-06-26T12:59:36;98096.63;;;30.55;53.17
34586;BME280;20816;50.950;11.108;2023-06-26T13:02:04;98110.84;;;29.75;54.85
34586;BME280;20816;50.950;11.108;2023-06-26T13:04:32;98096.53;;;29.49;55.56